KEGI/EGI METAR and TAF weather

Enter ICAO airport designator
Station Type Date Time Source
KEGI METAR 2019/02/23 02:55 UTC NOAA

KEGI 230255Z 15010KT 1/8SM FG OVC002 21/21 A3013 RMK AO2A SLP203 T02070207 52009 $


Station Type Date Time Source
KEGI Decoded METAR 2019/02/23 02:55 UTC NOAA

Duke Field / Eglin Auxiliary, FL, United States (KEGI) 30-39N 086-31W
Feb 22, 2019 - 09:55 PM EST / 2019.02.23 0255 UTC
Wind: from the SSE (150 degrees) at 12 MPH (10 KT):0
Visibility: 1/8 mile(s):0
Sky conditions: overcast
Weather: fog
Temperature: 69.3 F (20.7 C)
Dew Point: 69.3 F (20.7 C)
Relative Humidity: 100%
Pressure (altimeter): 30.13 in. Hg (1020 hPa)
Pressure tendency: 0.03 inches (0.9 hPa) higher than three hours ago
ob: KEGI 230255Z 15010KT 1/8SM FG OVC002 21/21 A3013 RMK AO2A SLP203 T02070207 52009
cycle: 3

Station Type Date Time Source
KEGI TAF 2019/02/23 02:04 UTC NOAA

TAF KEGI 230200Z 2302/2408 14006KT 0400 FG VV001 QNH3010INS
BECMG 2314/2315 14006KT 3200 BR OVC006 QNH3009INS
BECMG 2317/2318 15009KT 6000 BR OVC012 QNH3008INS
TEMPO 2321/2324 3200 BR OVC007
BECMG 2323/2324 14008KT 1600 BR OVC005 QNH3006INS TX20/2322Z TN18/2310Z LAST NO
AMDS AFT 2306 NEXT 2500


Example: see airport list